Time,TemperatureF,DewpointF,PressureIn,WindDirection,WindDirectionDegrees,WindSpeedMPH,WindSpeedGustMPH,Humidity,HourlyPrecipIn,Conditions,Clouds,dailyrainin,SoftwareType,DateUTC
2013-02-23 00:03:00,57.0,-99.9,30.11,SSE,153,12.0,14.0,-999,-99.99,,,-99.99,,2013-02-23 05:03:00,
2013-02-23 00:12:00,57.0,-99.9,30.11,SSE,154,13.0,17.0,-999,-99.99,,,-99.99,,2013-02-23 05:12:00,
2013-02-23 00:23:00,57.0,-99.9,30.10,SSE,158,11.0,14.0,-999,-99.99,,,-99.99,,2013-02-23 05:23:00,
2013-02-23 00:33:00,57.0,-99.9,30.10,SSE,154,12.0,16.0,-999,-99.99,,,-99.99,,2013-02-23 05:33:00,
2013-02-23 00:42:00,56.0,-99.9,30.10,SSE,156,10.0,15.0,-999,-99.99,,,-99.99,,2013-02-23 05:42:00,
2013-02-23 00:52:00,57.0,-99.9,30.09,SSE,155,9.0,13.0,-999,-99.99,,,-99.99,,2013-02-23 05:52:00,
2013-02-23 01:02:00,58.0,-99.9,30.09,SSE,150,12.0,17.0,-999,-99.99,,,-99.99,,2013-02-23 06:02:00,
2013-02-23 01:11:00,58.0,-99.9,30.09,SSE,152,12.0,17.0,-999,-99.99,,,-99.99,,2013-02-23 06:11:00,
2013-02-23 01:23:00,58.0,-99.9,30.08,SSE,151,12.0,18.0,-999,-99.99,,,-99.99,,2013-02-23 06:23:00,
2013-02-23 01:32:00,57.0,-99.9,30.08,SSE,148,8.0,12.0,-999,-99.99,,,-99.99,,2013-02-23 06:32:00,
2013-02-23 01:42:00,58.0,-99.9,30.08,SSE,149,10.0,15.0,-999,-99.99,,,-99.99,,2013-02-23 06:42:00,
2013-02-23 01:52:00,58.0,-99.9,30.07,SE,146,8.0,12.0,-999,-99.99,,,-99.99,,2013-02-23 06:52:00,
2013-02-23 02:01:00,57.0,-99.9,30.07,SSE,154,7.0,9.0,-999,-99.99,,,-99.99,,2013-02-23 07:01:00,
2013-02-23 02:11:00,58.0,-99.9,30.06,SSE,154,9.0,12.0,-999,-99.99,,,-99.99,,2013-02-23 07:11:00,
2013-02-23 02:21:00,57.0,-99.9,30.06,SSE,158,7.0,11.0,-999,-99.99,,,-99.99,,2013-02-23 07:21:00,
2013-02-23 02:32:00,57.0,-99.9,30.04,SSE,157,8.0,11.0,-999,-99.99,,,-99.99,,2013-02-23 07:32:00,
2013-02-23 02:42:00,57.0,-99.9,30.04,SSE,155,8.0,11.0,-999,-99.99,,,-99.99,,2013-02-23 07:42:00,
2013-02-23 02:52:00,58.0,-99.9,30.04,SSE,163,12.0,14.0,-999,-99.99,,,-99.99,,2013-02-23 07:52:00,
2013-02-23 03:01:00,58.0,-99.9,30.03,SSE,164,11.0,14.0,-999,-99.99,,,-99.99,,2013-02-23 08:01:00,
2013-02-23 03:11:00,58.0,-99.9,30.02,SSE,157,12.0,14.0,-999,-99.99,,,-99.99,,2013-02-23 08:11:00,
2013-02-23 03:21:00,57.0,-99.9,30.01,SSE,156,11.0,15.0,-999,-99.99,,,-99.99,,2013-02-23 08:21:00,
2013-02-23 03:32:00,58.0,-99.9,30.01,SSE,153,11.0,14.0,-999,-99.99,,,-99.99,,2013-02-23 08:32:00,
2013-02-23 03:42:00,57.0,-99.9,30.01,SSE,162,9.0,13.0,-999,-99.99,,,-99.99,,2013-02-23 08:42:00,
2013-02-23 03:53:00,58.0,-99.9,30.00,SSE,165,12.0,15.0,-999,-99.99,,,-99.99,,2013-02-23 08:53:00,
2013-02-23 04:02:00,58.0,-99.9,29.99,SSE,160,15.0,21.0,-999,-99.99,,,-99.99,,2013-02-23 09:02:00,
2013-02-23 04:11:00,58.0,-99.9,29.99,SSE,158,14.0,21.0,-999,-99.99,,,-99.99,,2013-02-23 09:11:00,
2013-02-23 04:22:00,59.0,-99.9,29.99,SSE,153,13.0,18.0,-999,-99.99,,,-99.99,,2013-02-23 09:22:00,
2013-02-23 04:32:00,58.0,-99.9,29.99,SSE,148,10.0,14.0,-999,-99.99,,,-99.99,,2013-02-23 09:32:00,
2013-02-23 04:42:00,58.0,-99.9,29.98,SSE,149,10.0,13.0,-999,-99.99,,,-99.99,,2013-02-23 09:42:00,
2013-02-23 04:52:00,58.0,-99.9,29.98,SE,144,9.0,12.0,-999,-99.99,,,-99.99,,2013-02-23 09:52:00,
2013-02-23 05:01:00,58.0,-99.9,29.97,SSE,151,10.0,14.0,-999,-99.99,,,-99.99,,2013-02-23 10:01:00,
2013-02-23 05:11:00,58.0,-99.9,29.97,SSE,154,10.0,13.0,-999,-99.99,,,-99.99,,2013-02-23 10:11:00,
2013-02-23 05:21:00,58.0,-99.9,29.97,SSE,158,10.0,13.0,-999,-99.99,,,-99.99,,2013-02-23 10:21:00,
2013-02-23 05:32:00,58.0,-99.9,29.97,SSE,162,10.0,13.0,-999,-99.99,,,-99.99,,2013-02-23 10:32:00,
2013-02-23 05:42:00,58.0,-99.9,29.96,SSE,161,10.0,13.0,-999,-99.99,,,-99.99,,2013-02-23 10:42:00,
2013-02-23 05:52:00,58.0,-99.9,29.96,SSE,158,12.0,17.0,-999,-99.99,,,-99.99,,2013-02-23 10:52:00,
2013-02-23 06:02:00,58.0,-99.9,29.96,SSE,161,10.0,15.0,-999,-99.99,,,-99.99,,2013-02-23 11:02:00,
2013-02-23 06:11:00,58.0,-99.9,29.96,SSE,162,11.0,15.0,-999,-99.99,,,-99.99,,2013-02-23 11:11:00,
2013-02-23 06:22:00,59.0,-99.9,29.96,SSE,162,10.0,14.0,-999,-99.99,,,-99.99,,2013-02-23 11:22:00,
2013-02-23 06:32:00,58.0,-99.9,29.95,SSE,157,9.0,13.0,-999,-99.99,,,-99.99,,2013-02-23 11:32:00,
2013-02-23 06:42:00,60.0,-99.9,29.95,SSE,163,14.0,19.0,-999,-99.99,,,-99.99,,2013-02-23 11:42:00,
2013-02-23 06:53:00,61.0,-99.9,29.95,SSE,167,14.0,17.0,-999,-99.99,,,-99.99,,2013-02-23 11:53:00,
2013-02-23 07:02:00,60.0,-99.9,29.94,SSE,155,15.0,20.0,-999,-99.99,,,-99.99,,2013-02-23 12:02:00,
2013-02-23 07:11:00,60.0,-99.9,29.94,SSE,162,14.0,19.0,-999,-99.99,,,-99.99,,2013-02-23 12:11:00,
2013-02-23 07:22:00,61.0,-99.9,29.94,SSE,162,10.0,22.0,-999,-99.99,,,-99.99,,2013-02-23 12:22:00,
2013-02-23 07:32:00,61.0,-99.9,29.94,South,182,8.0,16.0,-999,-99.99,,,-99.99,,2013-02-23 12:32:00,
2013-02-23 07:42:00,62.0,-99.9,29.94,South,172,13.0,17.0,-999,-99.99,,,-99.99,,2013-02-23 12:42:00,
2013-02-23 07:53:00,61.0,-99.9,29.94,South,188,6.0,13.0,-999,-99.99,,,-99.99,,2013-02-23 12:53:00,
2013-02-23 08:02:00,60.0,-99.9,29.94,South,187,5.0,10.0,-999,-99.99,,,-99.99,,2013-02-23 13:02:00,
2013-02-23 08:12:00,60.0,-99.9,29.95,South,189,5.0,11.0,-999,-99.99,,,-99.99,,2013-02-23 13:12:00,
2013-02-23 08:22:00,60.0,-99.9,29.95,South,187,6.0,11.0,-999,-99.99,,,-99.99,,2013-02-23 13:22:00,
2013-02-23 08:32:00,60.0,-99.9,29.95,South,181,8.0,13.0,-999,-99.99,,,-99.99,,2013-02-23 13:32:00,
2013-02-23 08:42:00,60.0,-99.9,29.94,South,186,7.0,12.0,-999,-99.99,,,-99.99,,2013-02-23 13:42:00,
2013-02-23 08:52:00,60.0,-99.9,29.95,SSW,203,13.0,18.0,-999,-99.99,,,-99.99,,2013-02-23 13:52:00,
2013-02-23 09:02:00,60.0,-99.9,29.94,SSW,196,8.0,15.0,-999,-99.99,,,-99.99,,2013-02-23 14:02:00,
2013-02-23 09:11:00,60.0,-99.9,29.94,SSW,202,9.0,14.0,-999,-99.99,,,-99.99,,2013-02-23 14:11:00,
2013-02-23 09:22:00,59.0,-99.9,29.93,SSW,200,9.0,14.0,-999,-99.99,,,-99.99,,2013-02-23 14:22:00,
2013-02-23 09:33:00,60.0,-99.9,29.93,South,188,7.0,12.0,-999,-99.99,,,-99.99,,2013-02-23 14:33:00,
2013-02-23 09:42:00,59.0,-99.9,29.93,South,185,7.0,13.0,-999,-99.99,,,-99.99,,2013-02-23 14:42:00,
2013-02-23 09:52:00,60.0,-99.9,29.92,SSW,199,9.0,15.0,-999,-99.99,,,-99.99,,2013-02-23 14:52:00,
2013-02-23 10:02:00,61.0,-99.9,29.92,South,186,6.0,14.0,-999,-99.99,,,-99.99,,2013-02-23 15:02:00,
2013-02-23 10:11:00,61.0,-99.9,29.91,SSW,194,6.0,13.0,-999,-99.99,,,-99.99,,2013-02-23 15:11:00,
2013-02-23 10:22:00,62.0,-99.9,29.91,South,188,7.0,18.0,-999,-99.99,,,-99.99,,2013-02-23 15:22:00,
2013-02-23 10:32:00,62.0,-99.9,29.91,SSW,200,6.0,15.0,-999,-99.99,,,-99.99,,2013-02-23 15:32:00,
2013-02-23 10:42:00,61.0,-99.9,29.91,SSW,206,11.0,15.0,-999,-99.99,,,-99.99,,2013-02-23 15:42:00,
2013-02-23 10:52:00,52.0,-99.9,29.91,West,275,16.0,20.0,-999,-99.99,,,-99.99,,2013-02-23 15:52:00,
2013-02-23 11:01:00,51.0,-99.9,29.91,West,276,13.0,16.0,-999,-99.99,,,-99.99,,2013-02-23 16:01:00,
2013-02-23 11:11:00,51.0,-99.9,29.91,West,277,12.0,15.0,-999,-99.99,,,-99.99,,2013-02-23 16:11:00,
2013-02-23 11:22:00,51.0,-99.9,29.90,WNW,292,10.0,13.0,-999,-99.99,,,-99.99,,2013-02-23 16:22:00,
2013-02-23 11:32:00,50.0,-99.9,29.90,WNW,302,12.0,14.0,-999,-99.99,,,-99.99,,2013-02-23 16:32:00,
2013-02-23 11:42:00,50.0,-99.9,29.90,NW,309,11.0,14.0,-999,-99.99,,,-99.99,,2013-02-23 16:42:00,
2013-02-23 11:52:00,49.0,-99.9,29.90,NW,310,12.0,13.0,-999,-99.99,,,-99.99,,2013-02-23 16:52:00,
2013-02-23 12:01:00,49.0,-99.9,29.90,NW,319,10.0,12.0,-999,-99.99,,,-99.99,,2013-02-23 17:01:00,
2013-02-23 12:11:00,49.0,-99.9,29.90,NW,315,10.0,13.0,-999,-99.99,,,-99.99,,2013-02-23 17:11:00,
2013-02-23 12:22:00,49.0,-99.9,29.89,NW,318,10.0,12.0,-999,-99.99,,,-99.99,,2013-02-23 17:22:00,
2013-02-23 12:32:00,48.0,-99.9,29.89,NW,317,9.0,10.0,-999,-99.99,,,-99.99,,2013-02-23 17:32:00,
2013-02-23 12:42:00,49.0,-99.9,29.88,NW,319,7.0,10.0,-999,-99.99,,,-99.99,,2013-02-23 17:42:00,
2013-02-23 12:52:00,48.0,-99.9,29.87,NNW,338,5.0,6.0,-999,-99.99,,,-99.99,,2013-02-23 17:52:00,
2013-02-23 13:02:00,48.0,-99.9,29.87,NNW,328,4.0,4.0,-999,-99.99,,,-99.99,,2013-02-23 18:02:00,
2013-02-23 13:12:00,48.0,-99.9,29.87,NW,320,2.0,4.0,-999,-99.99,,,-99.99,,2013-02-23 18:12:00,
2013-02-23 13:22:00,49.0,-99.9,29.86,NNE,12,1.0,2.0,-999,-99.99,,,-99.99,,2013-02-23 18:22:00,
2013-02-23 13:32:00,49.0,-99.9,29.85,North,351,1.0,2.0,-999,-99.99,,,-99.99,,2013-02-23 18:32:00,
2013-02-23 13:42:00,49.0,-99.9,29.85,NE,43,0.0,1.0,-999,-99.99,,,-99.99,,2013-02-23 18:42:00,
2013-02-23 13:52:00,50.0,-99.9,29.83,NW,318,0.0,1.0,-999,-99.99,,,-99.99,,2013-02-23 18:52:00,
2013-02-23 14:01:00,49.0,-99.9,29.82,NE,41,2.0,3.0,-999,-99.99,,,-99.99,,2013-02-23 19:01:00,
2013-02-23 14:12:00,49.0,-99.9,29.82,NNE,28,3.0,4.0,-999,-99.99,,,-99.99,,2013-02-23 19:12:00,
2013-02-23 14:22:00,49.0,-99.9,29.83,NW,318,5.0,6.0,-999,-99.99,,,-99.99,,2013-02-23 19:22:00,
2013-02-23 14:32:00,49.0,-99.9,29.83,NNW,335,4.0,4.0,-999,-99.99,,,-99.99,,2013-02-23 19:32:00,
2013-02-23 14:42:00,49.0,-99.9,29.83,NW,319,3.0,5.0,-999,-99.99,,,-99.99,,2013-02-23 19:42:00,
2013-02-23 14:52:00,49.0,-99.9,29.83,WNW,288,4.0,4.0,-999,-99.99,,,-99.99,,2013-02-23 19:52:00,
2013-02-23 15:01:00,49.0,-99.9,29.82,NW,311,2.0,5.0,-999,-99.99,,,-99.99,,2013-02-23 20:01:00,
2013-02-23 15:11:00,49.0,-99.9,29.81,NW,322,2.0,2.0,-999,-99.99,,,-99.99,,2013-02-23 20:11:00,
2013-02-23 15:22:00,49.0,-99.9,29.82,WNW,300,1.0,2.0,-999,-99.99,,,-99.99,,2013-02-23 20:22:00,
2013-02-23 15:32:00,49.0,-99.9,29.82,WNW,298,4.0,5.0,-999,-99.99,,,-99.99,,2013-02-23 20:32:00,
2013-02-23 15:42:00,49.0,-99.9,29.82,WNW,293,5.0,6.0,-999,-99.99,,,-99.99,,2013-02-23 20:42:00,
2013-02-23 15:53:00,49.0,-99.9,29.82,WNW,286,7.0,7.0,-999,-99.99,,,-99.99,,2013-02-23 20:53:00,
2013-02-23 16:02:00,48.0,-99.9,29.82,WNW,298,9.0,10.0,-999,-99.99,,,-99.99,,2013-02-23 21:02:00,
2013-02-23 16:12:00,49.0,-99.9,29.83,WNW,285,9.0,10.0,-999,-99.99,,,-99.99,,2013-02-23 21:12:00,
2013-02-23 16:22:00,49.0,-99.9,29.83,WNW,283,6.0,11.0,-999,-99.99,,,-99.99,,2013-02-23 21:22:00,
2013-02-23 16:32:00,49.0,-99.9,29.82,WNW,288,5.0,7.0,-999,-99.99,,,-99.99,,2013-02-23 21:32:00,
2013-02-23 16:42:00,49.0,-99.9,29.81,WNW,294,5.0,6.0,-999,-99.99,,,-99.99,,2013-02-23 21:42:00,
2013-02-23 16:52:00,49.0,-99.9,29.80,West,280,5.0,9.0,-999,-99.99,,,-99.99,,2013-02-23 21:52:00,
2013-02-23 17:02:00,49.0,-99.9,29.81,West,279,7.0,10.0,-999,-99.99,,,-99.99,,2013-02-23 22:02:00,
2013-02-23 17:11:00,49.0,-99.9,29.80,West,280,7.0,8.0,-999,-99.99,,,-99.99,,2013-02-23 22:11:00,
2013-02-23 17:22:00,49.0,-99.9,29.80,WSW,253,6.0,7.0,-999,-99.99,,,-99.99,,2013-02-23 22:22:00,
2013-02-23 17:32:00,49.0,-99.9,29.81,WSW,254,8.0,12.0,-999,-99.99,,,-99.99,,2013-02-23 22:32:00,
2013-02-23 17:42:00,49.0,-99.9,29.80,West,264,9.0,12.0,-999,-99.99,,,-99.99,,2013-02-23 22:42:00,
2013-02-23 17:52:00,49.0,-99.9,29.80,WSW,253,8.0,12.0,-999,-99.99,,,-99.99,,2013-02-23 22:52:00,
2013-02-23 18:02:00,49.0,-99.9,29.81,West,260,9.0,11.0,-999,-99.99,,,-99.99,,2013-02-23 23:02:00,
2013-02-23 18:11:00,49.0,-99.9,29.80,WSW,248,6.0,11.0,-999,-99.99,,,-99.99,,2013-02-23 23:11:00,
2013-02-23 18:22:00,49.0,-99.9,29.82,West,260,10.0,13.0,-999,-99.99,,,-99.99,,2013-02-23 23:22:00,
2013-02-23 18:32:00,49.0,-99.9,29.81,West,274,10.0,12.0,-999,-99.99,,,-99.99,,2013-02-23 23:32:00,
2013-02-23 18:42:00,49.0,-99.9,29.81,West,276,10.0,11.0,-999,-99.99,,,-99.99,,2013-02-23 23:42:00,
2013-02-23 18:52:00,48.0,-99.9,29.81,West,267,9.0,13.0,-999,-99.99,,,-99.99,,2013-02-23 23:52:00,
2013-02-23 19:02:00,48.0,-99.9,29.83,West,277,17.0,18.0,-999,-99.99,,,-99.99,,2013-02-24 00:02:00,
2013-02-23 19:11:00,48.0,-99.9,29.82,West,275,14.0,17.0,-999,-99.99,,,-99.99,,2013-02-24 00:11:00,
2013-02-23 19:22:00,48.0,-99.9,29.82,WNW,290,12.0,15.0,-999,-99.99,,,-99.99,,2013-02-24 00:22:00,
2013-02-23 19:32:00,49.0,-99.9,29.82,WNW,296,12.0,17.0,-999,-99.99,,,-99.99,,2013-02-24 00:32:00,
2013-02-23 19:42:00,49.0,-99.9,29.82,NW,304,12.0,15.0,-999,-99.99,,,-99.99,,2013-02-24 00:42:00,
2013-02-23 19:52:00,49.0,-99.9,29.80,NW,311,9.0,13.0,-999,-99.99,,,-99.99,,2013-02-24 00:52:00,
2013-02-23 20:01:00,48.0,-99.9,29.81,NW,317,10.0,16.0,-999,-99.99,,,-99.99,,2013-02-24 01:01:00,
2013-02-23 20:11:00,48.0,-99.9,29.81,NW,311,12.0,14.0,-999,-99.99,,,-99.99,,2013-02-24 01:11:00,
2013-02-23 20:22:00,48.0,-99.9,29.81,WNW,301,7.0,13.0,-999,-99.99,,,-99.99,,2013-02-24 01:22:00,
2013-02-23 20:32:00,48.0,-99.9,29.82,NW,312,11.0,13.0,-999,-99.99,,,-99.99,,2013-02-24 01:32:00,
2013-02-23 20:42:00,48.0,-99.9,29.82,NW,310,16.0,18.0,-999,-99.99,,,-99.99,,2013-02-24 01:42:00,
2013-02-23 20:52:00,48.0,-99.9,29.83,NW,304,11.0,16.0,-999,-99.99,,,-99.99,,2013-02-24 01:52:00,
2013-02-23 21:01:00,48.0,-99.9,29.83,NW,305,11.0,12.0,-999,-99.99,,,-99.99,,2013-02-24 02:01:00,
2013-02-23 21:12:00,48.0,-99.9,29.81,NW,312,2.0,6.0,-999,-99.99,,,-99.99,,2013-02-24 02:12:00,
2013-02-23 21:22:00,48.0,-99.9,29.82,NW,307,6.0,7.0,-999,-99.99,,,-99.99,,2013-02-24 02:22:00,
2013-02-23 21:32:00,48.0,-99.9,29.81,NNW,328,5.0,9.0,-999,-99.99,,,-99.99,,2013-02-24 02:32:00,
2013-02-23 21:42:00,48.0,-99.9,29.82,NW,320,8.0,9.0,-999,-99.99,,,-99.99,,2013-02-24 02:42:00,
2013-02-23 21:52:00,48.0,-99.9,29.82,WNW,289,3.0,6.0,-999,-99.99,,,-99.99,,2013-02-24 02:52:00,
2013-02-23 22:02:00,48.0,-99.9,29.84,WNW,302,7.0,7.0,-999,-99.99,,,-99.99,,2013-02-24 03:02:00,
2013-02-23 22:12:00,48.0,-99.9,29.83,NW,307,9.0,11.0,-999,-99.99,,,-99.99,,2013-02-24 03:12:00,
2013-02-23 22:22:00,47.0,-99.9,29.83,NW,307,12.0,13.0,-999,-99.99,,,-99.99,,2013-02-24 03:22:00,
2013-02-23 22:32:00,47.0,-99.9,29.83,NW,310,12.0,14.0,-999,-99.99,,,-99.99,,2013-02-24 03:32:00,
2013-02-23 22:42:00,47.0,-99.9,29.83,SW,236,2.0,10.0,-999,-99.99,,,-99.99,,2013-02-24 03:42:00,
2013-02-23 22:52:00,47.0,-99.9,29.83,SW,221,4.0,5.0,-999,-99.99,,,-99.99,,2013-02-24 03:52:00,
2013-02-23 23:02:00,48.0,-99.9,29.85,WNW,286,12.0,14.0,-999,-99.99,,,-99.99,,2013-02-24 04:02:00,
2013-02-23 23:11:00,47.0,-99.9,29.83,SW,224,3.0,11.0,-999,-99.99,,,-99.99,,2013-02-24 04:11:00,
2013-02-23 23:22:00,47.0,-99.9,29.84,WNW,285,11.0,13.0,-999,-99.99,,,-99.99,,2013-02-24 04:22:00,
2013-02-23 23:32:00,47.0,-99.9,29.83,West,261,8.0,10.0,-999,-99.99,,,-99.99,,2013-02-24 04:32:00,
2013-02-23 23:42:00,47.0,-99.9,29.83,WSW,254,5.0,9.0,-999,-99.99,,,-99.99,,2013-02-24 04:42:00,
2013-02-23 23:52:00,48.0,-99.9,29.83,West,262,8.0,10.0,-999,-99.99,,,-99.99,,2013-02-24 04:52:00,